Time;durP1;ratioP1;P1;durP2;ratioP2;P2;SDS_P1;SDS_P2;PMS_P1;PMS_P2;Temp;Humidity;BMP_temperature;BMP_pressure;BME280_temperature;BME280_humidity;BME280_pressure;Samples;Min_cycle;Max_cycle;Signal;HPM_P1;HPM_P2
2022/05/28 00:01:06;;;;;;;3.88;1.10;;;;;;;9.43;93.92;101008.94;5004361;28;20045;-85
2022/05/28 00:03:34;;;;;;;5.55;0.90;;;;;;;9.48;95.86;101008.97;5003946;28;20583;-84
2022/05/28 00:06:01;;;;;;;3.75;1.05;;;;;;;9.55;96.45;101002.00;4970965;28;20060;-85
2022/05/28 00:08:29;;;;;;;4.90;1.15;;;;;;;9.57;92.86;101003.75;4981138;28;20537;-85
2022/05/28 00:10:59;;;;;;;8.63;1.30;;;;;;;9.61;92.29;100994.16;4988626;28;20477;-85
2022/05/28 00:13:26;;;;;;;4.60;1.10;;;;;;;9.66;90.11;100992.44;4968907;28;20534;-83
2022/05/28 00:15:53;;;;;;;5.28;1.13;;;;;;;9.72;89.77;100996.78;4987450;28;20054;-84
2022/05/28 00:18:19;;;;;;;7.20;1.67;;;;;;;9.76;88.46;100999.41;4994990;28;20050;-86
2022/05/28 00:20:46;;;;;;;7.95;1.75;;;;;;;9.77;88.77;100985.44;4995240;28;20225;-84
2022/05/28 00:23:13;;;;;;;8.95;1.17;;;;;;;9.76;88.81;100983.72;4968113;28;20046;-84
2022/05/28 00:25:39;;;;;;;9.38;1.35;;;;;;;9.79;89.86;100987.19;5012715;28;20092;-84
2022/05/28 00:28:06;;;;;;;5.93;1.80;;;;;;;9.82;89.57;100977.59;4993323;28;20056;-83
2022/05/28 00:30:32;;;;;;;7.68;2.25;;;;;;;9.80;89.86;100973.25;4969098;28;20104;-83
2022/05/28 00:32:59;;;;;;;9.70;1.30;;;;;;;9.72;91.63;100975.88;5016233;28;20050;-86
2022/05/28 00:35:25;;;;;;;12.05;1.75;;;;;;;9.68;90.98;100969.75;5014598;28;20081;-83
2022/05/28 00:37:52;;;;;;;5.90;1.42;;;;;;;9.60;92.47;100975.00;4981141;28;20389;-84
2022/05/28 00:40:26;;;;;;;7.57;1.30;;;;;;;9.60;93.09;100984.59;4997152;28;20045;-83
2022/05/28 00:42:58;;;;;;;6.20;1.23;;;;;;;9.60;93.64;100982.81;5011206;28;20416;-84
2022/05/28 00:45:25;;;;;;;5.35;1.35;;;;;;;9.57;94.76;100969.78;4981815;28;20405;-84
2022/05/28 00:47:55;;;;;;;7.43;1.48;;;;;;;9.54;95.51;100964.56;5009544;28;20053;-84
2022/05/28 00:50:22;;;;;;;4.28;1.05;;;;;;;9.44;96.49;100965.41;4987314;28;20061;-84
2022/05/28 00:52:48;;;;;;;7.55;1.35;;;;;;;9.36;97.17;100954.06;4983715;28;20080;-85
2022/05/28 00:55:17;;;;;;;3.00;1.50;;;;;;;9.33;97.58;100960.16;5014548;28;20049;-84
2022/05/28 00:57:45;;;;;;;4.63;1.50;;;;;;;9.32;96.33;100950.59;5007716;28;20054;-83
2022/05/28 01:00:17;;;;;;;5.05;1.35;;;;;;;9.29;95.77;100949.72;4996198;28;20524;-83
2022/05/28 01:02:57;;;;;;;8.32;1.25;;;;;;;9.25;96.22;100952.31;4999867;28;20534;-85
2022/05/28 01:05:43;;;;;;;4.97;1.00;;;;;;;9.17;96.88;100956.66;4998788;28;20065;-84
2022/05/28 01:08:51;;;;;;;4.65;1.30;;;;;;;9.16;96.38;100947.06;4983708;28;20160;-84
2022/05/28 01:11:50;;;;;;;8.05;1.50;;;;;;;9.19;96.25;100951.44;4970231;28;20041;-84
2022/05/28 01:14:30;;;;;;;4.32;1.20;;;;;;;9.27;95.57;100949.72;4994245;28;20054;-85
2022/05/28 01:17:14;;;;;;;6.00;1.20;;;;;;;9.30;94.87;100939.25;4997993;28;20061;-85
2022/05/28 01:20:14;;;;;;;3.92;1.38;;;;;;;9.39;94.11;100943.63;4983744;28;20089;-85
2022/05/28 01:23:05;;;;;;;5.68;1.00;;;;;;;9.48;93.63;100938.41;4992786;28;20041;-86
2022/05/28 01:26:11;;;;;;;6.28;1.10;;;;;;;9.49;95.38;100941.88;4982363;28;20158;-86
2022/05/28 01:29:00;;;;;;;7.20;1.27;;;;;;;9.39;96.69;100935.81;4989808;28;20136;-83
2022/05/28 01:31:29;;;;;;;7.93;1.40;;;;;;;9.34;97.74;100937.53;4984562;28;20046;-85
2022/05/28 01:33:56;;;;;;;8.07;1.55;;;;;;;9.27;98.75;100923.59;4981058;28;20117;-85
2022/05/28 01:36:25;;;;;;;4.88;1.10;;;;;;;9.26;98.75;100924.47;4986306;28;20050;-84
2022/05/28 01:38:55;;;;;;;5.28;1.38;;;;;;;9.29;99.19;100931.44;4992268;28;20060;-84
2022/05/28 01:41:23;;;;;;;3.58;1.50;;;;;;;9.27;99.84;100947.13;4965492;28;20042;-84
2022/05/28 01:43:54;;;;;;;3.63;0.90;;;;;;;9.26;100.00;100941.00;4999346;28;21048;-82
2022/05/28 01:46:22;;;;;;;7.03;1.55;;;;;;;9.29;100.00;100945.34;4986564;28;20547;-82
2022/05/28 01:48:54;;;;;;;13.05;1.60;;;;;;;9.33;100.00;100941.88;4993279;28;20057;-84
2022/05/28 01:51:24;;;;;;;3.60;1.52;;;;;;;9.21;100.00;100929.66;4971072;28;20088;-84
2022/05/28 01:54:11;;;;;;;5.85;1.90;;;;;;;9.05;100.00;100926.19;4996374;28;20053;-85
2022/05/28 01:56:49;;;;;;;3.92;1.08;;;;;;;8.86;100.00;100927.00;4998745;28;20049;-84
2022/05/28 01:59:21;;;;;;;5.13;1.00;;;;;;;8.72;100.00;100933.06;4981148;28;20042;-81
2022/05/28 02:01:48;;;;;;;2.75;1.90;;;;;;;8.59;100.00;100926.03;4966824;28;20077;-83
2022/05/28 02:04:14;;;;;;;3.92;1.15;;;;;;;8.47;100.00;100934.69;4996150;28;20686;-84
2022/05/28 02:06:42;;;;;;;3.47;0.75;;;;;;;8.39;100.00;100929.41;4981824;28;20057;-84
2022/05/28 02:09:16;;;;;;;10.65;1.17;;;;;;;8.38;100.00;100932.91;4997529;28;20532;-85
2022/05/28 02:12:26;;;;;;;0.95;0.47;;;;;;;8.43;100.00;100940.72;4998284;28;20127;-84
2022/05/28 02:15:36;;;;;;;4.18;0.70;;;;;;;8.55;100.00;100932.13;4984619;28;20770;-84
2022/05/28 02:18:48;;;;;;;4.93;0.43;;;;;;;8.63;100.00;100934.75;4986531;28;20132;-84
2022/05/28 02:21:47;;;;;;;2.47;0.85;;;;;;;8.74;100.00;100930.44;5015924;28;20038;-84
2022/05/28 02:24:25;;;;;;;2.30;0.57;;;;;;;8.79;100.00;100920.91;4984326;28;20145;-83
2022/05/28 02:26:59;;;;;;;1.85;0.55;;;;;;;8.73;100.00;100929.56;4972978;28;20054;-85
2022/05/28 02:29:26;;;;;;;4.25;0.80;;;;;;;8.67;100.00;100933.91;5002659;28;20408;-85
2022/05/28 02:31:53;;;;;;;2.80;0.75;;;;;;;8.71;100.00;100936.53;4987577;28;20046;-85
2022/05/28 02:34:20;;;;;;;3.03;1.10;;;;;;;8.77;100.00;100936.56;4968458;28;20567;-83
2022/05/28 02:36:47;;;;;;;4.35;1.05;;;;;;;8.82;100.00;100933.09;4995511;28;20123;-85
2022/05/28 02:39:14;;;;;;;3.92;1.10;;;;;;;8.82;100.00;100930.47;4991226;28;20496;-83
2022/05/28 02:41:41;;;;;;;8.80;1.13;;;;;;;8.76;100.00;100924.38;4984805;28;20052;-84
2022/05/28 02:44:09;;;;;;;6.53;0.80;;;;;;;8.71;100.00;100936.53;4982514;28;20111;-83
2022/05/28 02:46:36;;;;;;;6.00;0.95;;;;;;;8.61;100.00;100935.63;5018313;28;20140;-83
2022/05/28 02:49:04;;;;;;;8.90;1.77;;;;;;;8.60;100.00;100939.13;4981349;28;20076;-83
2022/05/28 02:51:30;;;;;;;6.22;1.17;;;;;;;8.63;100.00;100932.16;4984851;28;20417;-81
2022/05/28 02:53:57;;;;;;;5.75;1.20;;;;;;;8.63;100.00;100938.25;5001327;28;20054;-83
2022/05/28 02:56:24;;;;;;;5.40;1.33;;;;;;;8.67;100.00;100937.41;4974443;28;20772;-82
2022/05/28 02:58:50;;;;;;;3.58;1.38;;;;;;;8.76;100.00;100928.69;4971606;28;20424;-83
2022/05/28 03:01:25;;;;;;;4.95;1.45;;;;;;;8.75;100.00;100924.38;4988183;28;20432;-81
2022/05/28 03:03:53;;;;;;;5.47;1.20;;;;;;;8.74;100.00;100933.06;5004886;28;20073;-81
2022/05/28 03:06:20;;;;;;;9.07;1.30;;;;;;;8.68;100.00;100925.22;5003339;28;20061;-82
2022/05/28 03:08:47;;;;;;;4.07;1.17;;;;;;;8.64;100.00;100933.91;5002249;28;20052;-82
2022/05/28 03:11:14;;;;;;;5.15;1.58;;;;;;;8.54;100.00;100931.25;4993637;28;20077;-82
2022/05/28 03:13:41;;;;;;;5.05;1.50;;;;;;;8.48;100.00;100931.22;4990957;28;20030;-80
2022/05/28 03:16:08;;;;;;;6.15;1.05;;;;;;;8.36;100.00;100939.84;4989417;28;20087;-83
2022/05/28 03:18:35;;;;;;;3.92;1.20;;;;;;;8.26;100.00;100931.09;4988963;28;20922;-82
2022/05/28 03:21:02;;;;;;;5.85;1.60;;;;;;;8.17;100.00;100941.47;5009125;28;20038;-81
2022/05/28 03:23:28;;;;;;;4.72;1.00;;;;;;;8.13;100.00;100941.47;4974254;28;20145;-81
2022/05/28 03:25:55;;;;;;;5.03;1.20;;;;;;;8.07;100.00;100942.28;4992271;28;20065;-83
2022/05/28 03:28:22;;;;;;;8.98;1.13;;;;;;;8.03;100.00;100932.69;5001585;28;20050;-80
2022/05/28 03:30:49;;;;;;;5.05;1.08;;;;;;;7.93;100.00;100930.03;5011018;28;20038;-83
2022/05/28 03:33:16;;;;;;;5.68;1.38;;;;;;;7.89;100.00;100946.53;5000030;28;20276;-82
2022/05/28 03:35:43;;;;;;;5.90;1.40;;;;;;;7.87;100.00;100950.84;4970631;28;20050;-82
2022/05/28 03:38:09;;;;;;;4.47;1.45;;;;;;;7.84;100.00;100948.22;5010024;28;20044;-83
2022/05/28 03:40:36;;;;;;;14.65;2.90;;;;;;;7.84;100.00;100945.63;4991352;28;20054;-80
2022/05/28 03:43:06;;;;;;;8.32;1.30;;;;;;;7.84;100.00;100947.38;4987707;28;20140;-82
2022/05/28 03:45:33;;;;;;;11.15;1.73;;;;;;;7.86;100.00;100951.72;5005437;28;20140;-83
2022/05/28 03:48:00;;;;;;;9.27;1.70;;;;;;;7.85;100.00;100955.19;5015116;28;20054;-86
2022/05/28 03:50:27;;;;;;;8.75;1.85;;;;;;;7.84;100.00;100961.25;4992622;28;20046;-85
2022/05/28 03:52:56;;;;;;;7.13;2.72;;;;;;;7.82;100.00;100962.97;4992497;28;20386;-87
2022/05/28 03:55:26;;;;;;;8.27;2.15;;;;;;;7.81;100.00;100958.66;4997428;28;20424;-85
2022/05/28 03:57:57;;;;;;;8.75;1.95;;;;;;;7.84;100.00;100957.78;4992672;28;20101;-84
2022/05/28 04:00:31;;;;;;;7.95;1.30;;;;;;;7.83;100.00;100961.25;4993136;28;20116;-85
2022/05/28 04:02:59;;;;;;;9.70;1.27;;;;;;;7.83;100.00;100961.25;4992332;28;20717;-86
2022/05/28 04:05:27;;;;;;;4.65;2.60;;;;;;;7.83;100.00;100969.06;4976065;28;20046;-85
2022/05/28 04:07:53;;;;;;;4.63;1.10;;;;;;;7.83;100.00;100969.94;5006958;28;20116;-86
2022/05/28 04:10:22;;;;;;;3.45;1.15;;;;;;;7.88;100.00;100970.84;4991029;28;20050;-86
2022/05/28 04:12:49;;;;;;;6.80;1.60;;;;;;;7.92;100.00;100970.00;5006117;28;20050;-84
2022/05/28 04:15:16;;;;;;;8.35;1.73;;;;;;;7.92;100.00;100976.94;5007227;28;20065;-86
2022/05/28 04:17:45;;;;;;;4.75;1.20;;;;;;;7.93;100.00;100970.88;5004819;28;20077;-86
2022/05/28 04:20:13;;;;;;;6.15;2.22;;;;;;;7.93;100.00;100971.75;4989904;28;20068;-85
2022/05/28 04:22:40;;;;;;;6.63;1.55;;;;;;;7.89;100.00;100972.59;4975971;28;20045;-84
2022/05/28 04:25:08;;;;;;;5.05;1.52;;;;;;;7.91;100.00;100976.09;5008977;28;20134;-85
2022/05/28 04:27:35;;;;;;;5.90;1.60;;;;;;;7.93;100.00;100974.34;4992574;28;20094;-86
2022/05/28 04:30:05;;;;;;;7.10;1.30;;;;;;;8.04;100.00;100974.41;4996115;28;20109;-86
2022/05/28 04:32:32;;;;;;;14.93;1.98;;;;;;;8.32;100.00;100971.09;4990935;28;20038;-85
2022/05/28 04:34:59;;;;;;;4.68;2.30;;;;;;;8.60;100.00;100973.03;5008416;28;20049;-84
2022/05/28 04:37:26;;;;;;;5.32;1.65;;;;;;;8.77;100.00;100980.94;5003104;28;20463;-83
2022/05/28 04:39:52;;;;;;;3.67;1.83;;;;;;;8.82;100.00;100969.63;4979037;28;20046;-84
2022/05/28 04:42:21;;;;;;;8.20;1.55;;;;;;;8.82;100.00;100974.84;4987422;28;20131;-85
2022/05/28 04:44:48;;;;;;;2.80;1.30;;;;;;;8.83;100.00;100981.81;4990708;28;20066;-85
2022/05/28 04:47:14;;;;;;;3.97;1.00;;;;;;;8.83;100.00;100980.06;4970686;28;20356;-83
2022/05/28 04:49:41;;;;;;;10.75;1.75;;;;;;;8.91;100.00;100978.34;4986324;28;20070;-84
2022/05/28 04:52:08;;;;;;;5.13;0.93;;;;;;;9.01;99.34;100968.81;5004365;28;20079;-85
2022/05/28 04:54:34;;;;;;;5.50;2.05;;;;;;;9.10;98.60;100979.28;5003853;28;20078;-85
2022/05/28 04:57:01;;;;;;;8.20;1.48;;;;;;;9.09;97.85;100976.69;4989172;28;20599;-86
2022/05/28 04:59:28;;;;;;;5.90;1.27;;;;;;;9.01;97.52;100975.75;5009776;28;20058;-85
2022/05/28 05:01:54;;;;;;;5.85;1.48;;;;;;;8.92;97.73;100980.09;5021993;28;20042;-83
2022/05/28 05:04:21;;;;;;;6.70;1.27;;;;;;;8.88;98.24;100988.78;5004017;28;20412;-86
2022/05/28 05:06:48;;;;;;;5.55;1.63;;;;;;;8.94;98.44;100982.72;4991511;28;20473;-84
2022/05/28 05:09:14;;;;;;;5.72;1.70;;;;;;;9.01;97.89;100978.38;4989258;28;20034;-84
2022/05/28 05:11:41;;;;;;;3.67;1.33;;;;;;;9.10;97.45;100983.66;5016564;28;20902;-85
2022/05/28 05:14:08;;;;;;;6.45;0.90;;;;;;;9.24;97.07;100984.56;5001916;28;20041;-85
2022/05/28 05:16:34;;;;;;;9.93;1.83;;;;;;;9.38;95.42;100976.72;5004923;28;20057;-83
2022/05/28 05:19:04;;;;;;;7.15;1.30;;;;;;;9.49;95.21;100973.25;5007665;28;20711;-85
2022/05/28 05:21:31;;;;;;;5.88;1.52;;;;;;;9.54;93.82;100992.41;5021126;28;20054;-86
2022/05/28 05:23:58;;;;;;;4.18;1.15;;;;;;;9.66;93.93;100986.31;4975720;28;20041;-84
2022/05/28 05:26:25;;;;;;;9.85;1.38;;;;;;;9.86;92.89;100979.34;4974617;28;20054;-84
2022/05/28 05:28:54;;;;;;;4.15;2.00;;;;;;;10.11;90.31;100979.31;4991813;28;20046;-85
2022/05/28 05:31:21;;;;;;;5.45;0.85;;;;;;;10.16;89.66;100985.41;5007177;28;20382;-83
2022/05/28 05:33:48;;;;;;;8.45;1.38;;;;;;;10.15;88.88;100988.88;4955382;28;20496;-84
2022/05/28 05:36:15;;;;;;;7.15;0.85;;;;;;;10.13;88.46;100987.16;5005711;28;20046;-86
2022/05/28 05:38:42;;;;;;;6.97;1.23;;;;;;;10.11;88.94;100992.38;4987684;28;20041;-83
2022/05/28 05:41:09;;;;;;;5.85;2.22;;;;;;;10.10;89.05;100982.78;4991502;28;20088;-83
2022/05/28 05:43:36;;;;;;;6.05;2.00;;;;;;;10.16;88.80;100995.88;4987098;28;20037;-85
2022/05/28 05:46:07;;;;;;;15.20;1.92;;;;;;;10.18;88.11;101001.97;4984290;28;20057;-84
2022/05/28 05:48:33;;;;;;;4.15;1.10;;;;;;;10.11;87.12;101008.09;4967248;28;20420;-83
2022/05/28 05:51:17;;;;;;;3.90;1.42;;;;;;;10.13;87.58;100997.63;4987295;28;20049;-85
2022/05/28 05:53:44;;;;;;;6.70;1.52;;;;;;;10.16;85.52;101000.25;4982594;28;20113;-86
2022/05/28 05:56:12;;;;;;;3.63;1.23;;;;;;;10.19;85.92;100995.00;4992641;28;20049;-85
2022/05/28 05:58:39;;;;;;;13.18;1.52;;;;;;;10.14;85.94;101001.97;4993274;28;21375;-85
2022/05/28 06:01:08;;;;;;;6.07;1.50;;;;;;;10.17;86.55;101007.19;5004266;28;20056;-83
2022/05/28 06:03:35;;;;;;;3.95;1.75;;;;;;;10.06;85.42;101004.59;4974538;28;20116;-84
2022/05/28 06:06:05;;;;;;;4.55;0.90;;;;;;;9.91;85.13;101002.88;4990545;28;20049;-86
2022/05/28 06:08:34;;;;;;;3.92;2.25;;;;;;;9.79;85.15;100998.53;4976055;28;20060;-85
2022/05/28 06:11:01;;;;;;;8.55;1.50;;;;;;;9.80;86.38;101005.47;4992467;28;20045;-86
2022/05/28 06:13:28;;;;;;;9.52;2.35;;;;;;;9.93;85.96;101008.97;4988125;28;20052;-84
2022/05/28 06:15:54;;;;;;;6.13;1.50;;;;;;;10.15;84.47;101017.66;5005803;28;20085;-85
2022/05/28 06:18:21;;;;;;;4.15;1.10;;;;;;;10.36;82.21;101010.69;4991634;28;20069;-84
2022/05/28 06:20:49;;;;;;;5.47;1.35;;;;;;;10.53;80.09;101013.25;5009042;28;20050;-86
2022/05/28 06:23:18;;;;;;;5.15;1.30;;;;;;;10.62;80.56;101005.38;5016806;28;20073;-86
2022/05/28 06:25:45;;;;;;;6.63;1.35;;;;;;;10.62;80.89;101009.75;5007656;28;20077;-85
2022/05/28 06:28:11;;;;;;;1.88;1.30;;;;;;;10.57;79.68;101012.38;5005249;28;20057;-84
2022/05/28 06:30:39;;;;;;;2.65;0.80;;;;;;;10.53;79.23;101006.31;4997216;28;20092;-86
2022/05/28 06:33:06;;;;;;;5.00;2.03;;;;;;;10.46;80.18;101009.78;5003017;28;20060;-84
2022/05/28 06:35:33;;;;;;;4.68;1.55;;;;;;;10.43;80.09;101017.66;5005408;28;20096;-82
2022/05/28 06:38:00;;;;;;;6.68;1.23;;;;;;;10.42;79.93;101010.69;5002326;28;20054;-82
2022/05/28 06:40:27;;;;;;;9.32;1.80;;;;;;;10.38;78.59;101006.34;4967176;28;20046;-83
2022/05/28 06:42:56;;;;;;;6.85;1.33;;;;;;;10.38;78.48;101022.91;4984101;28;20104;-82
2022/05/28 06:45:24;;;;;;;3.97;1.00;;;;;;;10.48;78.31;101022.88;4984909;28;20485;-81
2022/05/28 06:47:54;;;;;;;3.45;0.90;;;;;;;10.61;77.76;101018.47;4971467;28;20060;-82
2022/05/28 06:53:08;;;;;;;8.40;1.25;;;;;;;10.94;75.85;101009.63;4999197;28;20033;-82
2022/05/28 06:55:38;;;;;;;9.15;1.60;;;;;;;11.08;75.11;101014.78;4973045;28;20518;-82
2022/05/28 06:58:09;;;;;;;7.18;1.67;;;;;;;11.27;74.02;101018.16;4990602;28;20050;-81
2022/05/28 07:00:37;;;;;;;2.05;1.02;;;;;;;11.52;73.09;101008.38;4992224;28;20038;-81
2022/05/28 07:03:05;;;;;;;4.93;2.00;;;;;;;11.67;71.74;101017.91;4993288;28;20116;-83
2022/05/28 07:05:32;;;;;;;1.60;0.95;;;;;;;11.71;72.01;101026.63;5002683;28;20046;-80
2022/05/28 07:07:59;;;;;;;4.07;1.67;;;;;;;11.68;72.55;101024.00;4973633;28;20167;-81
2022/05/28 07:10:26;;;;;;;6.38;1.38;;;;;;;11.62;72.52;101024.06;4977082;28;20496;-81
2022/05/28 07:12:53;;;;;;;5.75;1.92;;;;;;;11.59;71.85;101020.59;5020594;28;20042;-81
2022/05/28 07:15:20;;;;;;;5.95;2.13;;;;;;;11.82;71.73;101027.38;4995093;28;20050;-82
2022/05/28 07:17:46;;;;;;;9.10;1.90;;;;;;;12.07;70.46;101020.22;4994415;28;20901;-82
2022/05/28 07:20:15;;;;;;;9.55;1.52;;;;;;;12.28;68.96;101022.66;4995820;28;20050;-82
2022/05/28 07:22:45;;;;;;;7.60;1.60;;;;;;;12.50;66.96;101015.41;5006586;28;20034;-82
2022/05/28 07:25:12;;;;;;;8.88;1.88;;;;;;;12.86;66.08;101016.72;5016750;28;20059;-81
2022/05/28 07:27:38;;;;;;;6.80;1.38;;;;;;;13.19;65.01;101027.72;4987834;28;20092;-80
2022/05/28 07:30:06;;;;;;;8.40;2.58;;;;;;;13.60;63.69;101019.25;4992328;28;20054;-87
2022/05/28 07:32:33;;;;;;;4.00;1.20;;;;;;;13.43;62.65;101009.88;5005632;28;20248;-84
2022/05/28 07:35:00;;;;;;;9.50;1.48;;;;;;;13.30;63.40;101018.81;5004127;28;20054;-84
2022/05/28 07:37:30;;;;;;;6.28;1.30;;;;;;;13.37;63.25;101017.84;4990767;28;20515;-85
2022/05/28 07:40:00;;;;;;;9.63;1.65;;;;;;;13.47;62.04;101016.81;5007114;28;20045;-86
2022/05/28 07:42:30;;;;;;;11.57;2.83;;;;;;;13.27;60.49;101022.34;5009774;28;20034;-86
2022/05/28 07:44:59;;;;;;;5.45;1.50;;;;;;;13.09;61.39;101015.56;4995247;28;20050;-84
2022/05/28 07:47:26;;;;;;;5.00;1.90;;;;;;;12.79;62.28;101022.06;5009912;28;20054;-84
2022/05/28 07:49:54;;;;;;;5.18;1.63;;;;;;;12.53;63.24;101025.91;4986912;28;20042;-85
2022/05/28 07:52:20;;;;;;;9.20;2.25;;;;;;;12.30;64.92;101031.38;4987470;28;20112;-86
2022/05/28 07:54:48;;;;;;;10.57;2.00;;;;;;;12.09;67.05;101028.09;4987517;28;20033;-85
2022/05/28 07:57:15;;;;;;;3.70;1.30;;;;;;;11.99;67.22;101043.03;5003058;28;20056;-85
2022/05/28 07:59:42;;;;;;;4.38;1.52;;;;;;;12.04;66.90;101041.22;4974936;28;20050;-86
2022/05/28 08:02:09;;;;;;;12.82;1.58;;;;;;;12.08;66.34;101037.72;4976065;28;20098;-85
2022/05/28 08:04:35;;;;;;;6.25;3.05;;;;;;;12.04;66.05;101038.59;5003305;28;20046;-85
2022/05/28 08:07:03;;;;;;;7.25;2.65;;;;;;;11.95;67.74;101048.28;4992139;28;20508;-85
2022/05/28 08:09:33;;;;;;;8.13;1.95;;;;;;;11.83;70.55;101050.13;4993909;28;20050;-86
2022/05/28 08:12:11;;;;;;;7.65;2.95;;;;;;;11.88;72.32;101055.34;4976023;28;20046;-85
2022/05/28 08:14:40;;;;;;;8.40;1.45;;;;;;;12.30;70.83;101050.63;4988261;28;20018;-84
2022/05/28 08:17:08;;;;;;;8.93;2.00;;;;;;;12.61;69.33;101049.47;5006388;28;20168;-85
2022/05/28 08:19:35;;;;;;;5.93;1.83;;;;;;;13.40;67.51;101049.34;5005224;28;20439;-85
2022/05/28 08:24:45;;;;;;;;;;;;;;;14.62;60.51;101038.53;4976558;28;20038;-85
2022/05/28 08:27:12;;;;;;;7.68;1.73;;;;;;;15.12;57.42;101027.88;4968575;28;19933;-85
2022/05/28 08:29:38;;;;;;;3.53;1.15;;;;;;;15.67;55.07;101031.88;4984219;28;20050;-85
2022/05/28 08:32:09;;;;;;;6.40;1.77;;;;;;;16.02;53.82;101034.56;5006853;28;20054;-83
2022/05/28 08:34:41;;;;;;;5.10;0.68;;;;;;;16.68;52.35;101034.59;4975508;28;20045;-85
2022/05/28 08:37:07;;;;;;;4.10;1.20;;;;;;;17.03;50.46;101032.72;4974026;28;20057;-84
2022/05/28 08:39:34;;;;;;;4.38;1.33;;;;;;;16.45;50.46;101025.53;4992372;28;20769;-84
2022/05/28 08:42:01;;;;;;;3.85;0.90;;;;;;;16.07;51.56;101031.81;5014122;28;20049;-79
2022/05/28 08:44:34;;;;;;;8.98;1.90;;;;;;;15.83;52.48;101035.03;4976132;28;20123;-80
2022/05/28 08:47:22;;;;;;;4.80;1.42;;;;;;;15.70;52.21;101036.22;4988064;28;20076;-80
2022/05/28 08:49:51;;;;;;;3.67;0.90;;;;;;;15.70;53.17;101030.94;4985955;28;20053;-80
2022/05/28 08:52:36;;;;;;;5.05;1.48;;;;;;;16.03;51.42;101024.00;5015089;28;20136;-80
2022/05/28 08:55:24;;;;;;;10.02;1.25;;;;;;;16.30;51.01;101042.66;5015985;28;20523;-81
2022/05/28 08:58:06;;;;;;;4.68;1.27;;;;;;;16.18;50.60;101030.63;4987465;28;20446;-82
2022/05/28 09:00:58;;;;;;;4.50;1.13;;;;;;;16.85;49.30;101034.09;5016047;28;20393;-82
2022/05/28 09:03:31;;;;;;;5.25;1.38;;;;;;;18.05;46.36;101028.66;5000512;28;20045;-80
2022/05/28 09:06:46;;;;;;;4.93;1.38;;;;;;;18.27;45.15;101034.94;4990034;28;20164;-80
2022/05/28 09:09:15;;;;;;;;;;;;;;;18.29;44.66;101035.75;4927804;28;20043;-80
2022/05/28 09:12:02;;;;;;;3.97;1.10;;;;;;;17.99;44.99;101020.00;4980499;28;20023;-80
2022/05/28 09:14:40;;;;;;;4.25;1.13;;;;;;;18.51;44.21;101027.91;4987920;28;21055;-79
2022/05/28 09:17:32;;;;;;;6.15;1.40;;;;;;;18.77;43.15;101025.22;4984469;28;20153;-79
2022/05/28 09:20:25;;;;;;;3.33;1.17;;;;;;;18.45;43.85;101016.66;4998112;28;20049;-81
2022/05/28 09:22:55;;;;;;;3.20;1.25;;;;;;;18.34;45.16;101022.31;4981604;28;20169;-81
2022/05/28 09:25:43;;;;;;;4.45;1.45;;;;;;;19.22;43.43;101023.56;4970213;28;20695;-83
2022/05/28 09:28:51;;;;;;;5.65;1.33;;;;;;;18.92;44.13;101029.13;5008190;28;20127;-82
2022/05/28 09:31:48;;;;;;;4.38;1.40;;;;;;;17.81;46.26;101036.50;4999405;28;20050;-85
2022/05/28 09:34:37;;;;;;;4.82;1.00;;;;;;;16.61;51.12;101062.09;4997685;28;20514;-83
2022/05/28 09:37:52;;;;;;;7.43;1.85;;;;;;;15.38;59.76;101051.03;4996095;28;20063;-83
2022/05/28 09:40:35;;;;;;;4.95;0.82;;;;;;;14.38;62.56;101060.03;4992869;28;20046;-85
2022/05/28 09:43:21;;;;;;;5.00;0.52;;;;;;;13.79;66.65;101056.66;5010282;28;20053;-86
2022/05/28 09:46:25;;;;;;;2.65;0.50;;;;;;;13.93;69.15;101044.16;4993077;28;20109;-84
2022/05/28 09:49:22;;;;;;;2.08;0.95;;;;;;;14.75;66.57;101044.47;5007549;28;20065;-84
2022/05/28 09:52:08;;;;;;;5.63;1.33;;;;;;;15.29;63.45;101038.94;4976909;28;20050;-86
2022/05/28 09:54:35;;;;;;;6.00;2.20;;;;;;;15.11;63.39;101048.09;5005185;28;20049;-85
2022/05/28 09:57:26;;;;;;;10.00;1.80;;;;;;;14.48;66.01;101039.66;5007083;28;20400;-84
2022/05/28 10:00:03;;;;;;;7.32;1.77;;;;;;;14.11;68.50;101048.22;4988133;28;20053;-84
2022/05/28 10:02:43;;;;;;;4.60;1.42;;;;;;;14.55;67.46;101050.97;5018459;28;20105;-84
2022/05/28 10:05:16;;;;;;;8.10;1.35;;;;;;;14.77;65.55;101054.09;4993708;28;20091;-84
2022/05/28 10:07:54;;;;;;;4.15;1.55;;;;;;;15.02;65.00;101048.31;5006756;28;20404;-84
2022/05/28 10:10:29;;;;;;;13.68;2.38;;;;;;;14.86;63.60;101053.00;5004431;28;20582;-84
2022/05/28 10:13:23;;;;;;;3.72;0.95;;;;;;;13.90;62.00;101076.66;5002606;28;20056;-85
2022/05/28 10:16:02;;;;;;;;;;;;;;;12.88;64.66;101082.41;4981943;28;20116;-84
2022/05/28 10:18:40;;;;;;;3.72;0.65;;;;;;;12.15;67.90;101075.28;4994726;28;20010;-84
2022/05/28 10:21:11;;;;;;;2.78;0.63;;;;;;;11.47;71.30;101061.75;5007872;28;20049;-85
2022/05/28 10:23:42;;;;;;;2.35;0.60;;;;;;;11.17;74.56;101059.28;4993281;28;20076;-84
2022/05/28 10:26:31;;;;;;;2.88;0.40;;;;;;;11.25;76.27;101064.47;4991229;28;20081;-84
2022/05/28 10:29:27;;;;;;;1.35;0.60;;;;;;;11.68;75.03;101063.34;5007316;28;20487;-84
2022/05/28 10:31:55;;;;;;;1.88;0.70;;;;;;;12.39;73.42;101061.03;4978157;28;20038;-84
2022/05/28 10:34:28;;;;;;;2.70;0.70;;;;;;;13.18;69.95;101054.88;5028779;28;20038;-85
2022/05/28 10:36:54;;;;;;;2.50;0.50;;;;;;;14.60;66.21;101056.13;4998065;28;20259;-85
2022/05/28 10:39:21;;;;;;;5.05;0.88;;;;;;;15.62;62.29;101057.50;5016358;28;20449;-84
2022/05/28 10:41:53;;;;;;;7.28;0.70;;;;;;;17.20;58.07;101050.75;5002103;28;20040;-83
2022/05/28 10:44:23;;;;;;;0.93;0.43;;;;;;;18.10;55.62;101046.13;4980256;28;20578;-82
2022/05/28 10:47:28;;;;;;;3.25;0.77;;;;;;;18.61;52.80;101041.69;5032718;28;20131;-82
2022/05/28 10:50:05;;;;;;;7.55;0.90;;;;;;;18.57;54.23;101037.41;5001639;28;20070;-82
2022/05/28 10:53:19;;;;;;;4.22;1.15;;;;;;;20.19;50.72;101043.50;5000655;28;20316;-81
2022/05/28 10:56:45;;;;;;;4.13;1.35;;;;;;;20.58;46.67;101034.69;4976902;28;20045;-84
2022/05/28 10:59:50;;;;;;;4.20;1.10;;;;;;;19.40;48.11;101045.81;5013588;28;20096;-82
2022/05/28 11:02:57;;;;;;;6.45;1.48;;;;;;;17.78;53.80;101063.94;4997848;28;20069;-83
2022/05/28 11:05:48;;;;;;;3.65;0.90;;;;;;;15.94;56.29;101068.22;5013298;28;20676;-82
2022/05/28 11:08:38;;;;;;;1.65;1.05;;;;;;;14.79;61.09;101077.75;4997659;28;20879;-81
2022/05/28 11:11:26;;;;;;;4.70;0.90;;;;;;;14.18;62.88;101038.47;5014033;28;20065;-82
2022/05/28 11:14:52;;;;;;;3.50;0.80;;;;;;;14.32;65.08;101036.44;5027736;28;20137;-81
2022/05/28 11:17:57;;;;;;;5.53;1.02;;;;;;;16.00;60.25;101031.97;4985193;28;20083;-83
2022/05/28 11:20:46;;;;;;;1.67;0.88;;;;;;;19.11;52.17;101016.88;4996263;28;20046;-82
2022/05/28 11:23:51;;;;;;;4.30;1.13;;;;;;;21.91;45.84;101015.13;5012748;28;20411;-81
2022/05/28 11:26:43;;;;;;;3.60;1.35;;;;;;;24.54;39.42;101008.50;5016149;28;20410;-84
2022/05/28 11:29:33;;;;;;;7.53;1.63;;;;;;;26.14;37.19;100998.22;5007818;28;20050;-82
2022/05/28 11:32:14;;;;;;;3.63;1.40;;;;;;;27.44;33.04;101005.13;5009463;28;20508;-83
2022/05/28 11:35:10;;;;;;;3.05;1.20;;;;;;;27.59;32.60;100997.72;5002591;28;20046;-81
2022/05/28 11:37:57;;;;;;;3.28;1.35;;;;;;;25.85;34.20;101006.41;5009830;28;20050;-82
2022/05/28 11:40:46;;;;;;;2.45;1.00;;;;;;;23.32;38.44;101001.47;4974615;28;20458;-82
2022/05/28 11:43:22;;;;;;;5.93;1.70;;;;;;;21.07;43.95;101015.66;5009649;28;20041;-81
2022/05/28 11:46:07;;;;;;;6.93;1.80;;;;;;;19.47;46.74;101032.25;4997841;28;20038;-80
2022/05/28 11:51:41;;;;;;;4.95;1.58;;;;;;;16.86;54.15;101043.78;5026474;28;20041;-83
2022/05/28 11:54:36;;;;;;;3.05;1.55;;;;;;;16.10;57.82;101032.63;4993687;28;20128;-82
2022/05/28 11:57:09;;;;;;;4.38;1.27;;;;;;;16.69;55.68;101039.81;5012962;28;20052;-82
2022/05/28 11:59:38;;;;;;;4.50;1.75;;;;;;;19.23;49.55;101025.25;5010591;28;20546;-83
2022/05/28 12:02:10;;;;;;;2.50;1.15;;;;;;;21.59;43.61;101022.06;5014895;28;20050;-82
2022/05/28 12:04:42;;;;;;;5.10;1.15;;;;;;;23.69;40.30;101018.03;5016114;28;20057;-84
2022/05/28 12:07:34;;;;;;;5.82;1.60;;;;;;;25.42;33.97;101004.78;4981018;28;20073;-82